Anadarko, Texas
Current Conditions -  °F | °C
As of 9:15 PM on Monday 26 Jan 2015 (Local Time) from KRFI Reporting Station
Clear Clear  
Wind Chill: 52°   Ceiling: Unl
Heat Index: 52°   Visibility: 10mi
Dew Point: 37°   Wind: 3mph
Humidity: 57%   Direction: 230°SW
Pressure: 30.09"   Gusts: NA
Location:  31.9447°N, 94.855°W
Report Text: KRFI 270315Z AUTO 23003KT 10SM CLR 11/03 A3009 RMK AO2 T01110028
Loading
Personal Weather Stations






























Interactive Weather Map New forecast layout! Learn more

10-Day Weather Forecast

Advertisements
Track Severe Weather on mobile